Columbus, OH (43232)

9:32 AM EDT on August 31, 2015 (GMT -0400)
Shack | | Change Station
CLOSE
Current Station
Personal Weather Station
Location: Columbus, OH
Elevation: 745 ft
Nearby Weather Stations

Elev 745 ft 39.91 °N, 82.93 °W | Updated 1 minute ago

Clear
Clear
75.4 °F
Feels Like 76 °F
N
2.2
Wind Variable Wind from South

Today
High -- | Low -- °F
--% Chance of Precip.
Yesterday
High -- | Low -- °F
Precip. -- in
6:58 AM 8:04 PM
Waning Gibbous, 95% visible
Pressure 30.10 in
Visibility 8.0 miles
Clouds Few 25000 ft
Heat Index 76 °F
Dew Point 69 °F
Humidity 80%
Rainfall 0.00 in
Snow Depth Not available.
UV 1 out of 12
Pollen 9.90 out of 12
Air Quality Not available.
Flu Activity Not available.
METAR KCMH 311251Z 00000KT 8SM FEW250 21/19 A3012 RMK AO2 SLP193 T02110194
Pressure 30.10 in
Visibility 8.0 miles
Clouds Few 25000 ft
Heat Index 76 °F
Dew Point 69 °F
Humidity 80%
Rainfall 0.00 in
Snow Depth Not available.
UV 1 out of 12
Pollen 9.90 out of 12
Air Quality Not available.
Flu Activity Not available.
METAR KCMH 311251Z 00000KT 8SM FEW250 21/19 A3012 RMK AO2 SLP193 T02110194

10-Day Weather Forecast

×

Almanac

Astronomy

Aug. 31, 2015 Rise Set
Actual Time
Civil Twilight
Nautical Twilight
Astronomical Twilight
Moon
Length of Visible Light
Length of Day
Tomorrow will be .
, % of the Moon is Illuminated

Today's Extremes

State Highs State Lows

Community

WunderPhotos

Upload Photos

1,851,218 photos uploaded!

WunderBlogs® & News

Nearby

Air Quality

  Air Quality AQ Index Pollutant
Not available.

Snow Depth

Station Depth Elevation

Earthquake Activity

City Distance Mag. Time & Date
Minimum magnitude displayed is 2.5.

Coastal Water Temperatures

Place Temperature

Stations

Nearby Weather Stations

Station Location Temp. Windchill Dew Point Humidity Wind Precip. Elev Updated Type